createdAt,value
2023-05-03T00:00:43.711Z,21.70
2023-05-03T00:03:15.490Z,21.33
2023-05-03T00:05:46.762Z,21.95
2023-05-03T00:08:17.873Z,21.60
2023-05-03T00:10:49.066Z,22.25
2023-05-03T00:13:20.169Z,20.45
2023-05-03T00:15:51.494Z,21.12
2023-05-03T00:18:22.829Z,21.68
2023-05-03T00:20:54.550Z,21.23
2023-05-03T00:23:25.721Z,20.62
2023-05-03T00:26:00.626Z,20.48
2023-05-03T00:28:31.834Z,20.60
2023-05-03T00:31:11.322Z,22.67
2023-05-03T00:33:42.990Z,20.32
2023-05-03T00:36:15.928Z,20.92
2023-05-03T00:38:47.102Z,21.35
2023-05-03T00:41:18.873Z,21.25
2023-05-03T00:43:50.027Z,21.30
2023-05-03T00:46:21.339Z,22.22
2023-05-03T00:48:52.857Z,20.30
2023-05-03T00:51:24.973Z,21.23
2023-05-03T00:53:56.087Z,20.82
2023-05-03T00:56:30.997Z,21.27
2023-05-03T00:59:01.069Z,20.32
2023-05-03T01:01:32.515Z,20.88
2023-05-03T01:04:07.846Z,20.88
2023-05-03T01:06:56.525Z,20.60
2023-05-03T01:09:45.409Z,20.50
2023-05-03T01:12:18.872Z,21.85
2023-05-03T01:15:11.574Z,21.42
2023-05-03T01:17:44.879Z,20.82
2023-05-03T01:20:17.467Z,21.55
2023-05-03T01:22:50.918Z,21.62
2023-05-03T01:25:22.522Z,21.93
2023-05-03T01:27:54.966Z,22.35
2023-05-03T01:30:29.500Z,21.97
2023-05-03T01:33:06.211Z,22.80
2023-05-03T01:35:59.110Z,22.58
2023-05-03T01:38:32.024Z,22.27
2023-05-03T01:41:05.535Z,20.95
2023-05-03T01:43:38.384Z,21.45
2023-05-03T01:46:11.327Z,20.82
2023-05-03T01:48:42.725Z,20.37
2023-05-03T01:51:14.224Z,20.80
2023-05-03T01:53:45.685Z,20.48
2023-05-03T01:56:17.422Z,20.10
2023-05-03T01:58:49.018Z,19.82
2023-05-03T02:01:20.741Z,18.70
2023-05-03T02:03:52.599Z,18.90
2023-05-03T02:06:23.791Z,19.45
2023-05-03T02:08:55.402Z,18.67
2023-05-03T02:11:26.886Z,19.27
2023-05-03T02:13:58.679Z,20.08
2023-05-03T02:16:30.360Z,19.82
2023-05-03T02:19:04.979Z,18.10
2023-05-03T02:21:37.546Z,19.05
2023-05-03T02:24:09.376Z,18.35
2023-05-03T02:26:40.932Z,17.57
2023-05-03T02:29:12.063Z,16.80
2023-05-03T02:31:43.157Z,16.15
2023-05-03T02:34:14.645Z,16.07
2023-05-03T02:36:45.746Z,16.73
2023-05-03T02:39:16.986Z,16.30
2023-05-03T02:41:48.076Z,14.78
2023-05-03T02:44:19.250Z,15.08
2023-05-03T02:46:50.399Z,15.25
2023-05-03T02:49:21.939Z,17.17
2023-05-03T02:51:54.463Z,15.53
2023-05-03T02:54:25.555Z,16.87
2023-05-03T02:56:56.768Z,16.45
2023-05-03T02:59:29.002Z,16.70
2023-05-03T03:02:01.046Z,16.82
2023-05-03T03:04:32.828Z,16.45
2023-05-03T03:07:03.976Z,16.35
2023-05-03T03:09:35.186Z,16.73
2023-05-03T03:12:06.561Z,15.35
2023-05-03T03:14:37.711Z,15.95
2023-05-03T03:17:10.798Z,15.90
2023-05-03T03:19:42.014Z,15.70
2023-05-03T03:22:13.453Z,17.05
2023-05-03T03:24:45.001Z,15.40
2023-05-03T03:27:16.362Z,16.57
2023-05-03T03:29:48.221Z,15.38
2023-05-03T03:32:20.023Z,16.57
2023-05-03T03:34:51.174Z,17.48
2023-05-03T03:37:24.537Z,15.93
2023-05-03T03:39:57.635Z,16.10
2023-05-03T03:42:29.029Z,16.73
2023-05-03T03:45:00.198Z,16.12
2023-05-03T03:47:31.328Z,16.67
2023-05-03T03:50:03.834Z,16.85
2023-05-03T03:52:36.478Z,17.25
2023-05-03T03:55:08.758Z,16.87
2023-05-03T03:57:40.187Z,17.45
2023-05-03T04:00:12.310Z,16.55
2023-05-03T04:02:44.043Z,17.07
2023-05-03T04:05:17.584Z,16.37
2023-05-03T04:07:50.093Z,15.95
2023-05-03T04:10:22.442Z,15.38
2023-05-03T04:12:53.849Z,16.07
2023-05-03T04:15:24.958Z,16.27
2023-05-03T04:17:56.116Z,17.00
2023-05-03T04:20:28.688Z,21.05
2023-05-03T04:22:59.819Z,18.07
2023-05-03T04:25:32.501Z,18.05
2023-05-03T04:28:04.355Z,18.05
2023-05-03T04:30:37.096Z,17.65
2023-05-03T04:33:10.313Z,18.92
2023-05-03T04:35:41.538Z,16.77
2023-05-03T04:38:14.378Z,18.20
2023-05-03T04:40:48.278Z,17.73
2023-05-03T04:43:23.135Z,16.57
2023-05-03T04:45:55.573Z,15.35
2023-05-03T04:48:26.709Z,16.93
2023-05-03T04:50:58.028Z,16.30
2023-05-03T04:53:32.300Z,16.95
2023-05-03T04:56:03.421Z,16.52
2023-05-03T04:58:34.610Z,15.72
2023-05-03T05:01:06.137Z,16.95
2023-05-03T05:03:38.432Z,17.05
2023-05-03T05:06:11.014Z,15.55
2023-05-03T05:08:45.232Z,18.50
2023-05-03T05:11:17.689Z,17.77
2023-05-03T05:13:49.691Z,17.48
2023-05-03T05:16:21.822Z,16.17
2023-05-03T05:18:56.181Z,17.27
2023-05-03T05:21:28.066Z,16.12
2023-05-03T05:23:59.457Z,16.50
2023-05-03T05:26:33.355Z,15.63
2023-05-03T05:29:04.769Z,15.45
2023-05-03T05:31:36.466Z,16.45
2023-05-03T05:34:07.981Z,16.55
2023-05-03T05:36:40.570Z,15.10
2023-05-03T05:39:13.073Z,16.17
2023-05-03T05:41:44.566Z,15.63
2023-05-03T05:44:15.777Z,16.93
2023-05-03T05:46:47.714Z,15.63
2023-05-03T05:49:18.904Z,16.52
2023-05-03T05:51:50.106Z,17.23
2023-05-03T05:54:21.262Z,16.45
2023-05-03T05:56:52.702Z,15.55
2023-05-03T05:59:24.208Z,16.12
2023-05-03T06:01:55.520Z,15.90
2023-05-03T06:04:28.330Z,16.05
2023-05-03T06:07:00.847Z,15.80
2023-05-03T06:09:33.208Z,15.90
2023-05-03T06:12:04.632Z,15.80
2023-05-03T06:14:40.671Z,15.13
2023-05-03T06:17:09.111Z,15.15
2023-05-03T06:19:41.513Z,17.57
2023-05-03T06:22:13.031Z,15.85
2023-05-03T06:24:44.620Z,15.68
2023-05-03T06:27:16.151Z,16.27
2023-05-03T06:29:47.706Z,16.37
2023-05-03T06:32:18.826Z,16.57
2023-05-03T06:34:50.855Z,15.80
2023-05-03T06:37:22.316Z,16.85
2023-05-03T06:39:53.878Z,14.25
2023-05-03T06:42:25.311Z,15.65
2023-05-03T06:44:56.457Z,14.73
2023-05-03T06:47:27.677Z,14.43
2023-05-03T06:50:00.233Z,15.05
2023-05-03T06:52:31.562Z,13.65
2023-05-03T06:55:02.699Z,14.07
2023-05-03T06:57:35.147Z,13.40
2023-05-03T07:00:09.886Z,12.55
2023-05-03T07:02:41.138Z,12.88
2023-05-03T07:05:13.953Z,13.15
2023-05-03T07:07:48.203Z,14.13
2023-05-03T07:10:19.965Z,13.53
2023-05-03T07:12:51.447Z,13.90
2023-05-03T07:15:22.966Z,14.83
2023-05-03T07:17:56.616Z,13.43
2023-05-03T07:20:28.498Z,14.70
2023-05-03T07:23:43.593Z,13.38
2023-05-03T07:28:45.752Z,14.55
2023-05-03T07:31:18.333Z,13.53
2023-05-03T07:33:50.847Z,17.50
2023-05-03T07:36:25.684Z,12.90
2023-05-03T07:38:58.658Z,12.63
2023-05-03T07:41:35.997Z,13.80
2023-05-03T07:44:10.173Z,14.40
2023-05-03T07:46:44.098Z,14.55
2023-05-03T07:49:14.134Z,14.03
2023-05-03T07:51:45.584Z,14.05
2023-05-03T07:54:19.394Z,13.50
2023-05-03T07:57:20.893Z,13.98
2023-05-03T07:59:23.512Z,13.95
2023-05-03T08:01:58.799Z,13.80
2023-05-03T08:04:30.612Z,13.98
2023-05-03T08:07:06.701Z,14.25
2023-05-03T08:09:37.978Z,14.50
2023-05-03T08:12:10.325Z,14.45
2023-05-03T08:14:42.065Z,13.83
2023-05-03T08:17:13.419Z,13.20
2023-05-03T08:19:44.912Z,13.10
2023-05-03T08:22:16.321Z,13.80
2023-05-03T08:24:47.781Z,12.82
2023-05-03T08:27:19.273Z,14.05
2023-05-03T08:29:50.746Z,13.62
2023-05-03T08:32:23.369Z,12.90
2023-05-03T08:34:55.090Z,14.35
2023-05-03T08:37:28.504Z,12.28
2023-05-03T08:39:59.412Z,12.80
2023-05-03T08:42:31.920Z,12.35
2023-05-03T08:45:04.170Z,13.62
2023-05-03T08:47:37.462Z,13.30
2023-05-03T08:50:10.164Z,13.65
2023-05-03T08:52:51.200Z,12.63
2023-05-03T08:55:23.992Z,12.93
2023-05-03T08:57:56.400Z,12.80
2023-05-03T09:00:31.934Z,13.00
2023-05-03T09:03:04.029Z,12.90
2023-05-03T09:05:36.597Z,12.73
2023-05-03T09:08:10.470Z,12.88
2023-05-03T09:10:43.909Z,13.22
2023-05-03T09:13:16.421Z,13.53
2023-05-03T09:15:49.453Z,13.93
2023-05-03T09:18:22.397Z,15.23
2023-05-03T09:21:01.385Z,14.10
2023-05-03T09:23:34.088Z,14.87
2023-05-03T09:26:05.610Z,14.53
2023-05-03T09:28:44.912Z,14.83
2023-05-03T09:31:23.403Z,14.53
2023-05-03T09:33:51.979Z,14.78
2023-05-03T09:36:23.656Z,14.38
2023-05-03T09:38:55.831Z,13.60
2023-05-03T09:41:33.918Z,14.90
2023-05-03T09:44:06.516Z,12.90
2023-05-03T09:46:38.695Z,14.20
2023-05-03T09:49:10.170Z,14.10
2023-05-03T09:51:43.070Z,13.90
2023-05-03T09:54:15.051Z,14.18
2023-05-03T09:56:48.449Z,15.32
2023-05-03T09:59:19.716Z,14.38
2023-05-03T10:01:55.287Z,15.20
2023-05-03T10:04:28.995Z,15.55
2023-05-03T10:07:03.905Z,14.87
2023-05-03T10:09:51.283Z,15.03
2023-05-03T10:12:24.438Z,15.75
2023-05-03T10:14:57.867Z,15.13
2023-05-03T10:17:46.405Z,14.78
2023-05-03T10:20:25.085Z,13.83
2023-05-03T10:23:13.657Z,15.72
2023-05-03T10:26:08.447Z,14.70
2023-05-03T10:28:40.624Z,14.43
2023-05-03T10:31:25.744Z,14.13
2023-05-03T10:34:03.046Z,13.93
2023-05-03T10:36:38.406Z,15.65
2023-05-03T10:39:02.433Z,13.15
2023-05-03T10:41:35.560Z,14.33
2023-05-03T10:44:29.557Z,14.83
2023-05-03T10:52:45.041Z,16.55
2023-05-03T10:55:22.195Z,12.70
2023-05-03T10:57:58.702Z,11.95
2023-05-03T11:00:38.138Z,13.55
2023-05-03T11:03:19.223Z,13.75
2023-05-03T11:05:51.277Z,13.40
2023-05-03T11:08:30.344Z,14.10
2023-05-03T11:11:03.763Z,15.13
2023-05-03T11:13:36.335Z,14.95
2023-05-03T11:16:08.809Z,14.63
2023-05-03T11:18:39.955Z,14.78
2023-05-03T11:21:11.218Z,14.15
2023-05-03T11:23:44.345Z,14.25
2023-05-03T11:26:16.397Z,13.80
2023-05-03T11:28:47.796Z,14.50
2023-05-03T11:31:19.079Z,15.58
2023-05-03T11:33:52.220Z,14.80
2023-05-03T11:36:23.413Z,15.25
2023-05-03T11:38:55.176Z,15.53
2023-05-03T11:41:27.300Z,15.53
2023-05-03T11:44:12.311Z,14.63
2023-05-03T11:46:33.145Z,15.58
2023-05-03T11:49:05.166Z,15.28
2023-05-03T11:51:37.314Z,16.50
2023-05-03T11:54:21.036Z,15.25
2023-05-03T11:56:41.698Z,15.32
2023-05-03T11:59:12.849Z,15.53
2023-05-03T12:01:44.874Z,15.40
2023-05-03T12:04:17.715Z,15.32
2023-05-03T12:06:51.963Z,13.93
2023-05-03T12:09:26.989Z,15.45
2023-05-03T12:11:59.024Z,15.05
2023-05-03T12:14:30.633Z,15.40
2023-05-03T12:17:02.488Z,15.68
2023-05-03T12:19:35.021Z,15.60
2023-05-03T12:22:23.463Z,14.65
2023-05-03T12:24:39.760Z,15.38
2023-05-03T12:27:14.758Z,14.73
2023-05-03T12:29:47.363Z,14.87
2023-05-03T12:32:20.976Z,14.45
2023-05-03T12:34:55.525Z,15.08
2023-05-03T12:37:27.791Z,15.00
2023-05-03T12:40:18.699Z,14.33
2023-05-03T12:42:33.820Z,14.68
2023-05-03T12:45:06.100Z,15.03
2023-05-03T12:47:39.167Z,15.03
2023-05-03T12:50:12.873Z,14.35
2023-05-03T12:52:45.486Z,14.50
2023-05-03T12:55:18.447Z,14.80
2023-05-03T12:58:10.318Z,14.73
2023-05-03T13:00:25.001Z,13.98
2023-05-03T13:05:34.981Z,14.13
2023-05-03T13:08:08.530Z,13.22
2023-05-03T13:10:37.166Z,13.08
2023-05-03T13:13:08.498Z,13.10
2023-05-03T13:15:40.538Z,12.93
2023-05-03T13:18:11.734Z,12.78
2023-05-03T13:20:43.724Z,13.18
2023-05-03T13:23:19.390Z,12.55
2023-05-03T13:25:52.377Z,12.53
2023-05-03T13:28:25.178Z,12.18
2023-05-03T13:30:56.388Z,11.60
2023-05-03T13:33:27.702Z,12.03
2023-05-03T13:35:59.942Z,11.70
2023-05-03T13:38:31.227Z,12.05
2023-05-03T13:41:05.232Z,12.00
2023-05-03T13:43:36.438Z,11.65
2023-05-03T13:46:08.880Z,12.68
2023-05-03T13:51:47.022Z,12.30
2023-05-03T13:54:18.502Z,12.43
2023-05-03T13:56:49.794Z,11.75
2023-05-03T13:59:24.997Z,12.00
2023-05-03T14:02:00.064Z,11.85
2023-05-03T14:04:32.777Z,11.20
2023-05-03T14:07:09.198Z,12.18
2023-05-03T14:12:15.457Z,11.85
2023-05-03T14:14:46.110Z,12.68
2023-05-03T14:17:18.418Z,11.45
2023-05-03T14:19:50.585Z,12.25
2023-05-03T14:25:20.055Z,12.13
2023-05-03T14:27:51.174Z,12.10
2023-05-03T14:30:22.643Z,12.30
2023-05-03T14:32:53.775Z,12.68
2023-05-03T14:35:25.193Z,12.30
2023-05-03T14:37:56.517Z,12.78
2023-05-03T14:40:28.522Z,12.37
2023-05-03T14:43:00.444Z,12.03
2023-05-03T14:45:31.651Z,12.30
2023-05-03T14:48:03.093Z,11.88
2023-05-03T14:50:34.787Z,12.37
2023-05-03T14:55:42.654Z,11.48
2023-05-03T14:58:15.688Z,11.73
2023-05-03T15:00:48.950Z,10.95
2023-05-03T15:03:20.625Z,12.55
2023-05-03T15:05:55.237Z,11.93
2023-05-03T15:08:26.914Z,13.05
2023-05-03T15:10:58.022Z,13.13
2023-05-03T15:13:29.886Z,12.20
2023-05-03T15:16:01.378Z,12.53
2023-05-03T15:18:45.018Z,12.43
2023-05-03T15:21:17.746Z,11.93
2023-05-03T15:23:53.532Z,13.03
2023-05-03T15:26:25.891Z,11.60
2023-05-03T15:28:57.050Z,12.47
2023-05-03T15:31:29.058Z,11.88
2023-05-03T15:34:02.584Z,12.80
2023-05-03T15:36:37.644Z,13.45
2023-05-03T15:39:10.401Z,13.65
2023-05-03T15:41:41.576Z,14.15
2023-05-03T15:44:18.712Z,13.53
2023-05-03T15:46:50.450Z,13.90
2023-05-03T15:49:23.612Z,16.52
2023-05-03T15:51:58.159Z,17.32
2023-05-03T15:54:29.890Z,17.27
2023-05-03T15:57:01.104Z,15.88
2023-05-03T15:59:32.356Z,16.42
2023-05-03T16:02:06.808Z,17.73
2023-05-03T16:04:42.245Z,15.98
2023-05-03T16:07:13.716Z,16.35
2023-05-03T16:09:45.952Z,15.70
2023-05-03T16:12:18.609Z,16.07
2023-05-03T16:14:50.231Z,15.78
2023-05-03T16:17:21.963Z,16.77
2023-05-03T16:19:53.408Z,16.45
2023-05-03T16:22:24.795Z,15.18
2023-05-03T16:24:55.899Z,16.27
2023-05-03T16:27:27.602Z,15.25
2023-05-03T16:30:03.396Z,15.25
2023-05-03T16:32:35.318Z,15.53
2023-05-03T16:35:07.199Z,15.78
2023-05-03T16:37:39.268Z,15.63
2023-05-03T16:40:30.503Z,15.60
2023-05-03T16:43:02.170Z,15.32
2023-05-03T16:45:37.645Z,15.75
2023-05-03T16:48:10.455Z,16.43
2023-05-03T16:50:43.454Z,14.60
2023-05-03T16:53:45.896Z,14.68
2023-05-03T16:56:02.080Z,14.38
2023-05-03T16:58:38.871Z,14.38
2023-05-03T17:01:12.760Z,13.98
2023-05-03T17:03:51.128Z,14.85
2023-05-03T17:06:24.272Z,13.95
2023-05-03T17:08:55.408Z,14.23
2023-05-03T17:11:29.947Z,13.98
2023-05-03T17:14:02.727Z,15.60
2023-05-03T17:16:33.866Z,14.87
2023-05-03T17:19:05.186Z,14.93
2023-05-03T17:21:36.332Z,14.58
2023-05-03T17:24:10.208Z,14.03
2023-05-03T17:26:41.303Z,14.60
2023-05-03T17:29:17.453Z,15.48
2023-05-03T17:31:48.724Z,15.38
2023-05-03T17:34:24.170Z,14.70
2023-05-03T17:36:58.419Z,14.90
2023-05-03T17:39:36.540Z,15.35
2023-05-03T17:42:08.973Z,14.60
2023-05-03T17:44:43.041Z,14.43
2023-05-03T17:47:21.449Z,14.95
2023-05-03T17:49:55.791Z,15.65
2023-05-03T17:52:29.904Z,14.78
2023-05-03T17:55:13.392Z,15.85
2023-05-03T17:57:46.392Z,15.53
2023-05-03T18:00:21.507Z,14.55
2023-05-03T18:03:10.426Z,15.68
2023-05-03T18:05:48.106Z,15.95
2023-05-03T18:08:23.156Z,16.30
2023-05-03T18:13:25.191Z,15.43
2023-05-03T18:15:56.889Z,15.90
2023-05-03T18:18:32.180Z,15.43
2023-05-03T18:21:04.614Z,16.70
2023-05-03T18:23:38.154Z,15.43
2023-05-03T18:26:09.523Z,15.78
2023-05-03T18:28:40.710Z,15.55
2023-05-03T18:31:19.731Z,16.73
2023-05-03T18:33:55.502Z,15.93
2023-05-03T18:36:29.634Z,15.23
2023-05-03T18:39:01.972Z,15.70
2023-05-03T18:41:33.390Z,16.97
2023-05-03T18:44:08.061Z,16.60
2023-05-03T18:46:40.130Z,17.12
2023-05-03T18:49:13.846Z,16.37
2023-05-03T18:51:45.214Z,16.30
2023-05-03T18:54:16.318Z,15.95
2023-05-03T18:56:47.468Z,16.87
2023-05-03T18:59:18.869Z,16.73
2023-05-03T19:01:49.962Z,16.82
2023-05-03T19:04:21.180Z,17.02
2023-05-03T19:06:52.353Z,16.55
2023-05-03T19:09:23.448Z,17.67
2023-05-03T19:11:54.609Z,16.82
2023-05-03T19:14:25.704Z,18.07
2023-05-03T19:16:56.894Z,17.12
2023-05-03T19:19:28.043Z,19.50
2023-05-03T19:21:59.161Z,17.48
2023-05-03T19:24:30.286Z,17.48
2023-05-03T19:27:07.099Z,17.73
2023-05-03T19:29:35.057Z,17.27
2023-05-03T19:32:06.432Z,18.30
2023-05-03T19:34:43.142Z,17.02
2023-05-03T19:37:14.253Z,17.80
2023-05-03T19:39:45.374Z,19.40
2023-05-03T19:42:16.807Z,17.92
2023-05-03T19:44:48.136Z,18.37
2023-05-03T19:47:19.282Z,18.07
2023-05-03T19:49:50.659Z,18.12
2023-05-03T19:52:21.784Z,17.70
2023-05-03T19:54:52.871Z,18.92
2023-05-03T19:57:23.968Z,17.80
2023-05-03T19:59:55.109Z,18.40
2023-05-03T20:02:26.876Z,18.52
2023-05-03T20:04:58.053Z,18.50
2023-05-03T20:07:29.161Z,17.98
2023-05-03T20:10:00.301Z,18.35
2023-05-03T20:12:32.269Z,18.27
2023-05-03T20:15:03.421Z,18.62
2023-05-03T20:17:34.558Z,17.98
2023-05-03T20:20:13.485Z,17.87
2023-05-03T20:22:44.717Z,18.45
2023-05-03T20:25:15.856Z,18.62
2023-05-03T20:27:47.551Z,18.10
2023-05-03T20:30:18.737Z,19.15
2023-05-03T20:32:49.951Z,17.92
2023-05-03T20:35:21.080Z,19.55
2023-05-03T20:37:52.210Z,18.87
2023-05-03T20:40:23.352Z,20.10
2023-05-03T20:42:54.462Z,19.95
2023-05-03T20:45:25.741Z,20.40
2023-05-03T20:47:57.142Z,20.48
2023-05-03T20:50:28.551Z,20.27
2023-05-03T20:52:59.677Z,20.08
2023-05-03T20:55:30.804Z,19.95
2023-05-03T20:58:01.970Z,19.67
2023-05-03T21:00:33.233Z,20.72
2023-05-03T21:03:04.696Z,19.92
2023-05-03T21:05:36.563Z,19.73
2023-05-03T21:08:07.702Z,20.57
2023-05-03T21:10:38.807Z,21.07
2023-05-03T21:13:10.046Z,20.27
2023-05-03T21:15:41.339Z,19.98
2023-05-03T21:18:13.039Z,19.75
2023-05-03T21:20:44.536Z,19.80
2023-05-03T21:23:15.684Z,20.05
2023-05-03T21:25:46.765Z,19.98
2023-05-03T21:28:18.052Z,20.68
2023-05-03T21:33:41.404Z,19.70
2023-05-03T21:36:13.636Z,21.27
2023-05-03T21:38:44.744Z,20.05
2023-05-03T21:41:17.150Z,19.60
2023-05-03T21:44:02.969Z,20.90
2023-05-03T21:46:34.453Z,19.25
2023-05-03T21:49:05.568Z,20.40
2023-05-03T21:51:36.709Z,19.87
2023-05-03T21:54:08.224Z,19.95
2023-05-03T21:56:39.356Z,20.72
2023-05-03T21:59:10.533Z,20.05
2023-05-03T22:01:41.714Z,20.15
2023-05-03T22:04:12.884Z,21.40
2023-05-03T22:06:47.127Z,20.08
2023-05-03T22:09:18.578Z,21.17
2023-05-03T22:11:49.714Z,19.62
2023-05-03T22:14:20.891Z,20.20
2023-05-03T22:16:52.060Z,19.77
2023-05-03T22:19:23.179Z,20.10
2023-05-03T22:21:54.283Z,21.52
2023-05-03T22:24:26.725Z,20.92
2023-05-03T22:26:57.840Z,21.05
2023-05-03T22:29:29.061Z,20.75
2023-05-03T22:32:02.610Z,21.30
2023-05-03T22:34:33.917Z,20.70
2023-05-03T22:37:05.052Z,22.13
2023-05-03T22:39:36.208Z,21.25
2023-05-03T22:42:08.133Z,21.15
2023-05-03T22:44:40.231Z,21.00
2023-05-03T22:47:11.482Z,21.80
2023-05-03T22:49:42.601Z,22.48
2023-05-03T22:52:13.735Z,22.93
2023-05-03T22:54:44.875Z,22.85
2023-05-03T22:57:15.976Z,22.98
2023-05-03T22:59:50.205Z,22.62
2023-05-03T23:02:21.489Z,23.15
2023-05-03T23:04:52.851Z,22.42
2023-05-03T23:07:26.228Z,23.18
2023-05-03T23:10:04.478Z,24.40
2023-05-03T23:12:36.023Z,23.85
2023-05-03T23:15:08.079Z,23.50
2023-05-03T23:17:39.259Z,25.95
2023-05-03T23:20:11.734Z,25.60
2023-05-03T23:22:43.445Z,24.75
2023-05-03T23:25:14.781Z,25.45
2023-05-03T23:27:47.084Z,24.70
2023-05-03T23:30:18.656Z,24.55
2023-05-03T23:32:50.457Z,24.55
2023-05-03T23:35:23.319Z,25.48
2023-05-03T23:37:54.833Z,25.88
2023-05-03T23:40:25.972Z,26.10
2023-05-03T23:42:57.604Z,25.40
2023-05-03T23:45:28.781Z,27.05
2023-05-03T23:47:59.933Z,29.48
2023-05-03T23:50:31.069Z,31.40
2023-05-03T23:53:02.841Z,32.15
2023-05-03T23:55:42.144Z,31.48
2023-05-03T23:58:17.648Z,34.13
